sensor_id;sensor_type;location;lat;lon;timestamp;pressure;altitude;pressure_sealevel;temperature;humidity
15678;BME280;7939;50.814;6.368;2023-01-15T00:01:19;98408.53;;;12.18;62.63
15678;BME280;7939;50.814;6.368;2023-01-15T00:03:45;98416.09;;;12.22;64.06
15678;BME280;7939;50.814;6.368;2023-01-15T00:06:14;98422.09;;;12.21;64.51
15678;BME280;7939;50.814;6.368;2023-01-15T00:08:41;98423.34;;;12.08;62.99
15678;BME280;7939;50.814;6.368;2023-01-15T00:11:08;98420.50;;;12.17;63.58
15678;BME280;7939;50.814;6.368;2023-01-15T00:13:34;98430.19;;;12.07;62.31
15678;BME280;7939;50.814;6.368;2023-01-15T00:16:02;98428.31;;;12.12;63.56
15678;BME280;7939;50.814;6.368;2023-01-15T00:18:28;98415.91;;;11.99;63.24
15678;BME280;7939;50.814;6.368;2023-01-15T00:20:58;98437.88;;;12.07;63.91
15678;BME280;7939;50.814;6.368;2023-01-15T00:23:26;98443.66;;;12.12;64.14
15678;BME280;7939;50.814;6.368;2023-01-15T00:26:11;98446.38;;;12.08;63.25
15678;BME280;7939;50.814;6.368;2023-01-15T00:28:55;98445.38;;;11.82;62.76
15678;BME280;7939;50.814;6.368;2023-01-15T00:31:22;98433.81;;;11.66;62.56
15678;BME280;7939;50.814;6.368;2023-01-15T00:33:48;98423.78;;;11.91;63.61
15678;BME280;7939;50.814;6.368;2023-01-15T00:36:16;98410.72;;;12.00;64.08
15678;BME280;7939;50.814;6.368;2023-01-15T00:38:44;98405.41;;;12.08;63.85
15678;BME280;7939;50.814;6.368;2023-01-15T00:41:10;98408.00;;;12.06;64.27
15678;BME280;7939;50.814;6.368;2023-01-15T00:43:37;98407.81;;;12.14;64.57
15678;BME280;7939;50.814;6.368;2023-01-15T00:46:04;98398.47;;;12.11;64.10
15678;BME280;7939;50.814;6.368;2023-01-15T00:48:32;98383.91;;;12.13;64.44
15678;BME280;7939;50.814;6.368;2023-01-15T00:50:59;98379.66;;;12.12;64.32
15678;BME280;7939;50.814;6.368;2023-01-15T00:53:26;98392.56;;;12.09;63.17
15678;BME280;7939;50.814;6.368;2023-01-15T00:55:54;98386.56;;;12.10;64.03
15678;BME280;7939;50.814;6.368;2023-01-15T00:58:20;98390.78;;;12.11;63.99
15678;BME280;7939;50.814;6.368;2023-01-15T01:00:52;98363.34;;;12.17;64.04
15678;BME280;7939;50.814;6.368;2023-01-15T01:03:18;98367.66;;;12.14;64.46
15678;BME280;7939;50.814;6.368;2023-01-15T01:05:45;98370.25;;;12.13;63.75
15678;BME280;7939;50.814;6.368;2023-01-15T01:08:11;98379.75;;;12.09;63.82
15678;BME280;7939;50.814;6.368;2023-01-15T01:10:38;98390.00;;;12.09;64.03
15678;BME280;7939;50.814;6.368;2023-01-15T01:13:06;98384.81;;;12.11;63.74
15678;BME280;7939;50.814;6.368;2023-01-15T01:15:32;98369.56;;;12.08;64.10
15678;BME280;7939;50.814;6.368;2023-01-15T01:17:59;98373.81;;;12.09;63.65
15678;BME280;7939;50.814;6.368;2023-01-15T01:20:26;98379.75;;;12.09;64.47
15678;BME280;7939;50.814;6.368;2023-01-15T01:22:54;98371.38;;;12.04;63.95
15678;BME280;7939;50.814;6.368;2023-01-15T01:25:21;98367.09;;;12.05;64.14
15678;BME280;7939;50.814;6.368;2023-01-15T01:27:47;98331.22;;;12.05;63.49
15678;BME280;7939;50.814;6.368;2023-01-15T01:30:16;98357.72;;;12.04;63.13
15678;BME280;7939;50.814;6.368;2023-01-15T01:32:43;98364.47;;;12.06;63.56
15678;BME280;7939;50.814;6.368;2023-01-15T01:35:10;98372.25;;;12.03;62.86
15678;BME280;7939;50.814;6.368;2023-01-15T01:37:37;98365.47;;;12.02;63.10
15678;BME280;7939;50.814;6.368;2023-01-15T01:40:04;98375.75;;;12.01;63.25
15678;BME280;7939;50.814;6.368;2023-01-15T01:42:31;98370.63;;;12.01;62.67
15678;BME280;7939;50.814;6.368;2023-01-15T01:45:01;98363.03;;;11.98;62.45
15678;BME280;7939;50.814;6.368;2023-01-15T01:47:30;98367.31;;;11.97;63.30
15678;BME280;7939;50.814;6.368;2023-01-15T01:50:01;98389.41;;;12.00;62.52
15678;BME280;7939;50.814;6.368;2023-01-15T01:52:32;98403.16;;;11.97;62.83
15678;BME280;7939;50.814;6.368;2023-01-15T01:55:03;98408.44;;;11.91;62.24
15678;BME280;7939;50.814;6.368;2023-01-15T01:57:31;98415.22;;;11.92;62.49
15678;BME280;7939;50.814;6.368;2023-01-15T01:59:58;98413.72;;;11.85;63.17
15678;BME280;7939;50.814;6.368;2023-01-15T02:02:28;98406.81;;;11.87;63.44
15678;BME280;7939;50.814;6.368;2023-01-15T02:04:55;98400.09;;;11.84;63.32
15678;BME280;7939;50.814;6.368;2023-01-15T02:07:22;98394.19;;;11.81;62.08
15678;BME280;7939;50.814;6.368;2023-01-15T02:09:49;98401.88;;;11.81;62.74
15678;BME280;7939;50.814;6.368;2023-01-15T02:12:23;98404.81;;;11.66;62.95
15678;BME280;7939;50.814;6.368;2023-01-15T02:14:55;98400.38;;;11.72;62.79
15678;BME280;7939;50.814;6.368;2023-01-15T02:17:33;98419.41;;;11.62;62.13
15678;BME280;7939;50.814;6.368;2023-01-15T02:20:20;98402.00;;;11.76;63.50
15678;BME280;7939;50.814;6.368;2023-01-15T02:22:57;98395.94;;;11.79;62.83
15678;BME280;7939;50.814;6.368;2023-01-15T02:25:31;98394.22;;;11.79;62.53
15678;BME280;7939;50.814;6.368;2023-01-15T02:28:03;98390.78;;;11.80;62.60
15678;BME280;7939;50.814;6.368;2023-01-15T02:30:38;98401.00;;;11.80;63.20
15678;BME280;7939;50.814;6.368;2023-01-15T02:33:09;98407.84;;;11.80;62.27
15678;BME280;7939;50.814;6.368;2023-01-15T02:35:42;98391.75;;;11.76;62.37
15678;BME280;7939;50.814;6.368;2023-01-15T02:38:14;98400.28;;;11.75;62.73
15678;BME280;7939;50.814;6.368;2023-01-15T02:40:42;98396.25;;;11.67;61.67
15678;BME280;7939;50.814;6.368;2023-01-15T02:43:12;98391.81;;;11.73;62.30
15678;BME280;7939;50.814;6.368;2023-01-15T02:45:41;98401.09;;;11.77;62.88
15678;BME280;7939;50.814;6.368;2023-01-15T02:48:11;98386.63;;;11.76;62.08
15678;BME280;7939;50.814;6.368;2023-01-15T02:50:40;98384.97;;;11.74;62.89
15678;BME280;7939;50.814;6.368;2023-01-15T02:53:11;98393.59;;;11.71;62.72
15678;BME280;7939;50.814;6.368;2023-01-15T02:55:42;98387.53;;;11.74;62.65
15678;BME280;7939;50.814;6.368;2023-01-15T02:58:15;98402.16;;;11.69;62.30
15678;BME280;7939;50.814;6.368;2023-01-15T03:00:44;98394.50;;;11.69;62.28
15678;BME280;7939;50.814;6.368;2023-01-15T03:03:16;98390.25;;;11.68;61.88
15678;BME280;7939;50.814;6.368;2023-01-15T03:05:47;98387.81;;;11.65;61.89
15678;BME280;7939;50.814;6.368;2023-01-15T03:08:18;98392.09;;;11.62;62.03
15678;BME280;7939;50.814;6.368;2023-01-15T03:10:47;98388.69;;;11.64;61.96
15678;BME280;7939;50.814;6.368;2023-01-15T03:13:20;98380.28;;;11.58;61.82
15678;BME280;7939;50.814;6.368;2023-01-15T03:15:54;98375.84;;;11.65;62.43
15678;BME280;7939;50.814;6.368;2023-01-15T03:18:43;98358.72;;;11.67;62.41
15678;BME280;7939;50.814;6.368;2023-01-15T03:21:16;98368.22;;;11.64;62.33
15678;BME280;7939;50.814;6.368;2023-01-15T03:23:48;98360.53;;;11.64;62.74
15678;BME280;7939;50.814;6.368;2023-01-15T03:26:17;98346.03;;;11.62;62.55
15678;BME280;7939;50.814;6.368;2023-01-15T03:28:46;98355.38;;;11.65;61.91
15678;BME280;7939;50.814;6.368;2023-01-15T03:31:13;98357.03;;;11.66;61.89
15678;BME280;7939;50.814;6.368;2023-01-15T03:33:41;98357.03;;;11.66;62.29
15678;BME280;7939;50.814;6.368;2023-01-15T03:36:08;98360.59;;;11.60;61.89
15678;BME280;7939;50.814;6.368;2023-01-15T03:38:37;98367.41;;;11.61;61.67
15678;BME280;7939;50.814;6.368;2023-01-15T03:41:13;98369.06;;;11.64;62.52
15678;BME280;7939;50.814;6.368;2023-01-15T03:43:50;98359.66;;;11.65;61.51
15678;BME280;7939;50.814;6.368;2023-01-15T03:46:27;98368.22;;;11.62;62.34
15678;BME280;7939;50.814;6.368;2023-01-15T03:49:00;98374.16;;;11.64;62.55
15678;BME280;7939;50.814;6.368;2023-01-15T03:51:33;98378.47;;;11.62;62.25
15678;BME280;7939;50.814;6.368;2023-01-15T03:54:04;98376.84;;;11.59;62.30
15678;BME280;7939;50.814;6.368;2023-01-15T03:56:37;98376.25;;;11.50;61.71
15678;BME280;7939;50.814;6.368;2023-01-15T03:59:14;98367.72;;;11.51;62.05
15678;BME280;7939;50.814;6.368;2023-01-15T04:01:44;98355.09;;;11.43;61.12
15678;BME280;7939;50.814;6.368;2023-01-15T04:04:13;98352.31;;;11.52;61.54
15678;BME280;7939;50.814;6.368;2023-01-15T04:06:41;98337.13;;;11.46;62.25
15678;BME280;7939;50.814;6.368;2023-01-15T04:09:09;98338.63;;;11.53;61.85
15678;BME280;7939;50.814;6.368;2023-01-15T04:11:37;98347.25;;;11.49;62.25
15678;BME280;7939;50.814;6.368;2023-01-15T04:14:05;98347.94;;;11.56;62.51
15678;BME280;7939;50.814;6.368;2023-01-15T04:16:33;98341.28;;;11.50;61.78
15678;BME280;7939;50.814;6.368;2023-01-15T04:18:59;98354.09;;;11.50;61.62
15678;BME280;7939;50.814;6.368;2023-01-15T04:21:26;98351.63;;;11.46;62.54
15678;BME280;7939;50.814;6.368;2023-01-15T04:23:53;98347.25;;;11.51;61.69
15678;BME280;7939;50.814;6.368;2023-01-15T04:26:19;98362.72;;;11.46;62.48
15678;BME280;7939;50.814;6.368;2023-01-15T04:28:46;98364.59;;;11.40;61.68
15678;BME280;7939;50.814;6.368;2023-01-15T04:31:13;98359.25;;;11.47;61.87
15678;BME280;7939;50.814;6.368;2023-01-15T04:33:41;98344.06;;;11.41;61.44
15678;BME280;7939;50.814;6.368;2023-01-15T04:36:08;98358.44;;;11.47;62.18
15678;BME280;7939;50.814;6.368;2023-01-15T04:38:36;98354.31;;;11.41;61.72
15678;BME280;7939;50.814;6.368;2023-01-15T04:41:04;98366.22;;;11.42;61.66
15678;BME280;7939;50.814;6.368;2023-01-15T04:43:48;98365.63;;;11.31;61.28
15678;BME280;7939;50.814;6.368;2023-01-15T04:46:33;98365.63;;;11.32;61.59
15678;BME280;7939;50.814;6.368;2023-01-15T04:49:02;98374.25;;;11.28;61.49
15678;BME280;7939;50.814;6.368;2023-01-15T04:51:29;98372.38;;;11.35;61.21
15678;BME280;7939;50.814;6.368;2023-01-15T04:53:56;98379.59;;;11.19;60.87
15678;BME280;7939;50.814;6.368;2023-01-15T04:56:25;98377.63;;;11.29;62.20
15678;BME280;7939;50.814;6.368;2023-01-15T04:58:52;98380.25;;;11.27;62.01
15678;BME280;7939;50.814;6.368;2023-01-15T05:01:19;98381.13;;;11.26;61.66
15678;BME280;7939;50.814;6.368;2023-01-15T05:03:45;98393.06;;;11.26;60.93
15678;BME280;7939;50.814;6.368;2023-01-15T05:06:13;98393.09;;;11.24;61.50
15678;BME280;7939;50.814;6.368;2023-01-15T05:08:40;98378.38;;;11.34;61.39
15678;BME280;7939;50.814;6.368;2023-01-15T05:11:06;98388.66;;;11.31;61.75
15678;BME280;7939;50.814;6.368;2023-01-15T05:13:33;98389.53;;;11.30;61.78
15678;BME280;7939;50.814;6.368;2023-01-15T05:16:07;98386.09;;;11.31;60.63
15678;BME280;7939;50.814;6.368;2023-01-15T05:18:34;98395.50;;;11.30;61.47
15678;BME280;7939;50.814;6.368;2023-01-15T05:21:00;98398.19;;;11.26;60.60
15678;BME280;7939;50.814;6.368;2023-01-15T05:23:28;98409.22;;;11.28;61.15
15678;BME280;7939;50.814;6.368;2023-01-15T05:25:55;98394.66;;;11.30;61.01
15678;BME280;7939;50.814;6.368;2023-01-15T05:28:21;98392.00;;;11.34;61.45
15678;BME280;7939;50.814;6.368;2023-01-15T05:30:48;98392.25;;;11.24;60.84
15678;BME280;7939;50.814;6.368;2023-01-15T05:33:14;98397.09;;;11.34;61.40
15678;BME280;7939;50.814;6.368;2023-01-15T05:35:41;98389.53;;;11.31;62.01
15678;BME280;7939;50.814;6.368;2023-01-15T05:38:07;98386.19;;;11.28;61.73
15678;BME280;7939;50.814;6.368;2023-01-15T05:40:35;98374.97;;;11.33;61.45
15678;BME280;7939;50.814;6.368;2023-01-15T05:43:02;98366.50;;;11.31;62.18
15678;BME280;7939;50.814;6.368;2023-01-15T05:45:28;98367.25;;;11.35;62.22
15678;BME280;7939;50.814;6.368;2023-01-15T05:47:55;98367.34;;;11.32;62.04
15678;BME280;7939;50.814;6.368;2023-01-15T05:50:21;98370.75;;;11.32;61.39
15678;BME280;7939;50.814;6.368;2023-01-15T05:52:48;98387.66;;;11.37;61.27
15678;BME280;7939;50.814;6.368;2023-01-15T05:55:15;98388.56;;;11.35;61.92
15678;BME280;7939;50.814;6.368;2023-01-15T05:57:43;98393.03;;;11.27;61.82
15678;BME280;7939;50.814;6.368;2023-01-15T06:00:10;98391.22;;;11.31;62.29
15678;BME280;7939;50.814;6.368;2023-01-15T06:02:37;98392.03;;;11.33;61.81
15678;BME280;7939;50.814;6.368;2023-01-15T06:05:04;98404.81;;;11.33;61.83
15678;BME280;7939;50.814;6.368;2023-01-15T06:07:31;98407.38;;;11.33;62.37
15678;BME280;7939;50.814;6.368;2023-01-15T06:09:58;98408.22;;;11.33;61.49
15678;BME280;7939;50.814;6.368;2023-01-15T06:12:24;98418.34;;;11.37;62.00
15678;BME280;7939;50.814;6.368;2023-01-15T06:14:52;98409.91;;;11.34;61.41
15678;BME280;7939;50.814;6.368;2023-01-15T06:17:18;98409.09;;;11.32;62.31
15678;BME280;7939;50.814;6.368;2023-01-15T06:19:45;98433.84;;;11.32;62.07
15678;BME280;7939;50.814;6.368;2023-01-15T06:22:11;98426.38;;;11.23;61.88
15678;BME280;7939;50.814;6.368;2023-01-15T06:24:38;98416.03;;;11.27;61.66
15678;BME280;7939;50.814;6.368;2023-01-15T06:27:05;98434.97;;;11.20;61.54
15678;BME280;7939;50.814;6.368;2023-01-15T06:29:31;98434.00;;;11.26;61.52
15678;BME280;7939;50.814;6.368;2023-01-15T06:31:59;98432.28;;;11.26;62.09
15678;BME280;7939;50.814;6.368;2023-01-15T06:34:26;98439.84;;;11.29;61.48
15678;BME280;7939;50.814;6.368;2023-01-15T06:36:52;98424.59;;;11.26;61.21
15678;BME280;7939;50.814;6.368;2023-01-15T06:39:19;98426.31;;;11.26;61.83
15678;BME280;7939;50.814;6.368;2023-01-15T06:41:46;98422.94;;;11.24;62.33
15678;BME280;7939;50.814;6.368;2023-01-15T06:44:30;98425.50;;;11.24;62.58
15678;BME280;7939;50.814;6.368;2023-01-15T06:47:18;98415.22;;;11.27;62.03
15678;BME280;7939;50.814;6.368;2023-01-15T06:49:50;98434.88;;;11.23;61.45
15678;BME280;7939;50.814;6.368;2023-01-15T06:52:17;98431.44;;;11.24;61.46
15678;BME280;7939;50.814;6.368;2023-01-15T06:54:43;98434.88;;;11.23;62.42
15678;BME280;7939;50.814;6.368;2023-01-15T06:57:10;98436.56;;;11.24;62.36
15678;BME280;7939;50.814;6.368;2023-01-15T06:59:36;98433.22;;;11.22;61.61
15678;BME280;7939;50.814;6.368;2023-01-15T07:02:03;98439.25;;;11.20;61.59
15678;BME280;7939;50.814;6.368;2023-01-15T07:04:31;98434.88;;;11.23;62.38
15678;BME280;7939;50.814;6.368;2023-01-15T07:06:58;98439.16;;;11.23;62.10
15678;BME280;7939;50.814;6.368;2023-01-15T07:09:25;98445.13;;;11.23;62.10
15678;BME280;7939;50.814;6.368;2023-01-15T07:11:51;98443.44;;;11.22;61.75
15678;BME280;7939;50.814;6.368;2023-01-15T07:14:20;98450.31;;;11.19;61.71
15678;BME280;7939;50.814;6.368;2023-01-15T07:16:47;98453.66;;;11.22;62.12
15678;BME280;7939;50.814;6.368;2023-01-15T07:19:15;98454.47;;;11.24;62.43
15678;BME280;7939;50.814;6.368;2023-01-15T07:21:43;98468.22;;;11.20;61.46
15678;BME280;7939;50.814;6.368;2023-01-15T07:24:11;98457.94;;;11.22;62.39
15678;BME280;7939;50.814;6.368;2023-01-15T07:26:38;98459.75;;;11.17;61.52
15678;BME280;7939;50.814;6.368;2023-01-15T07:29:04;98461.53;;;11.15;61.79
15678;BME280;7939;50.814;6.368;2023-01-15T07:31:31;98474.44;;;11.08;61.20
15678;BME280;7939;50.814;6.368;2023-01-15T07:33:58;98465.66;;;11.19;61.28
15678;BME280;7939;50.814;6.368;2023-01-15T07:36:25;98465.81;;;11.14;60.82
15678;BME280;7939;50.814;6.368;2023-01-15T07:38:53;98479.63;;;11.05;61.79
15678;BME280;7939;50.814;6.368;2023-01-15T07:41:20;98499.03;;;11.14;61.21
15678;BME280;7939;50.814;6.368;2023-01-15T07:44:04;98493.03;;;11.15;61.72
15678;BME280;7939;50.814;6.368;2023-01-15T07:46:48;98486.31;;;11.11;61.73
15678;BME280;7939;50.814;6.368;2023-01-15T07:49:32;98516.25;;;11.06;61.66
15678;BME280;7939;50.814;6.368;2023-01-15T07:52:13;98514.72;;;10.99;61.13
15678;BME280;7939;50.814;6.368;2023-01-15T07:54:41;98521.22;;;11.12;60.91
15678;BME280;7939;50.814;6.368;2023-01-15T07:57:08;98523.88;;;11.09;60.41
15678;BME280;7939;50.814;6.368;2023-01-15T07:59:35;98541.00;;;11.04;60.42
15678;BME280;7939;50.814;6.368;2023-01-15T08:02:01;98535.84;;;11.07;61.01
15678;BME280;7939;50.814;6.368;2023-01-15T08:04:28;98520.59;;;11.02;60.70
15678;BME280;7939;50.814;6.368;2023-01-15T08:06:55;98538.16;;;11.18;60.92
15678;BME280;7939;50.814;6.368;2023-01-15T08:09:23;98547.56;;;11.16;61.32
15678;BME280;7939;50.814;6.368;2023-01-15T08:11:52;98550.22;;;11.13;61.15
15678;BME280;7939;50.814;6.368;2023-01-15T08:14:36;98550.31;;;11.08;60.68
15678;BME280;7939;50.814;6.368;2023-01-15T08:17:20;98546.91;;;11.07;61.32
15678;BME280;7939;50.814;6.368;2023-01-15T08:19:47;98542.81;;;11.00;61.29
15678;BME280;7939;50.814;6.368;2023-01-15T08:22:13;98526.50;;;11.04;61.33
15678;BME280;7939;50.814;6.368;2023-01-15T08:24:40;98539.28;;;11.04;61.61
15678;BME280;7939;50.814;6.368;2023-01-15T08:27:08;98556.34;;;11.04;61.26
15678;BME280;7939;50.814;6.368;2023-01-15T08:29:35;98551.31;;;11.01;61.83
15678;BME280;7939;50.814;6.368;2023-01-15T08:32:02;98548.72;;;11.02;61.37
15678;BME280;7939;50.814;6.368;2023-01-15T08:34:29;98552.53;;;10.83;61.20
15678;BME280;7939;50.814;6.368;2023-01-15T08:36:56;98565.16;;;10.91;61.96
15678;BME280;7939;50.814;6.368;2023-01-15T08:39:25;98548.06;;;10.93;61.18
15678;BME280;7939;50.814;6.368;2023-01-15T08:41:52;98548.81;;;10.98;61.83
15678;BME280;7939;50.814;6.368;2023-01-15T08:44:21;98547.97;;;10.97;61.03
15678;BME280;7939;50.814;6.368;2023-01-15T08:46:48;98555.59;;;11.00;61.80
15678;BME280;7939;50.814;6.368;2023-01-15T08:49:15;98550.50;;;10.99;61.22
15678;BME280;7939;50.814;6.368;2023-01-15T08:51:43;98545.38;;;10.99;60.78
15678;BME280;7939;50.814;6.368;2023-01-15T08:54:11;98554.63;;;10.64;61.15
15678;BME280;7939;50.814;6.368;2023-01-15T08:56:38;98554.28;;;10.81;61.06
15678;BME280;7939;50.814;6.368;2023-01-15T08:59:05;98550.13;;;10.77;61.29
15678;BME280;7939;50.814;6.368;2023-01-15T09:01:34;98546.38;;;10.92;61.89
15678;BME280;7939;50.814;6.368;2023-01-15T09:04:00;98545.84;;;10.77;61.06
15678;BME280;7939;50.814;6.368;2023-01-15T09:06:28;98545.63;;;10.87;60.97
15678;BME280;7939;50.814;6.368;2023-01-15T09:08:55;98551.72;;;10.83;60.91
15678;BME280;7939;50.814;6.368;2023-01-15T09:11:21;98550.16;;;10.75;61.27
15678;BME280;7939;50.814;6.368;2023-01-15T09:13:48;98542.38;;;10.80;61.20
15678;BME280;7939;50.814;6.368;2023-01-15T09:16:16;98540.03;;;10.71;61.07
15678;BME280;7939;50.814;6.368;2023-01-15T09:18:44;98541.53;;;10.79;61.17
15678;BME280;7939;50.814;6.368;2023-01-15T09:21:11;98544.22;;;10.73;60.45
15678;BME280;7939;50.814;6.368;2023-01-15T09:23:38;98543.56;;;10.64;60.71
15678;BME280;7939;50.814;6.368;2023-01-15T09:26:06;98533.13;;;10.74;60.75
15678;BME280;7939;50.814;6.368;2023-01-15T09:28:33;98536.63;;;10.70;60.41
15678;BME280;7939;50.814;6.368;2023-01-15T09:31:00;98539.09;;;10.73;61.28
15678;BME280;7939;50.814;6.368;2023-01-15T09:33:27;98540.66;;;10.82;61.04
15678;BME280;7939;50.814;6.368;2023-01-15T09:35:55;98539.31;;;10.64;60.46
15678;BME280;7939;50.814;6.368;2023-01-15T09:38:22;98549.59;;;10.60;60.79
15678;BME280;7939;50.814;6.368;2023-01-15T09:40:50;98551.28;;;10.61;60.85
15678;BME280;7939;50.814;6.368;2023-01-15T09:43:28;98544.22;;;10.75;61.40
15678;BME280;7939;50.814;6.368;2023-01-15T09:46:07;98546.69;;;10.78;60.93
15678;BME280;7939;50.814;6.368;2023-01-15T09:48:43;98542.38;;;10.82;60.80
15678;BME280;7939;50.814;6.368;2023-01-15T09:51:22;98540.72;;;10.77;60.97
15678;BME280;7939;50.814;6.368;2023-01-15T09:54:15;98533.31;;;10.65;61.02
15678;BME280;7939;50.814;6.368;2023-01-15T09:56:46;98553.66;;;10.70;60.81
15678;BME280;7939;50.814;6.368;2023-01-15T09:59:19;98544.34;;;10.69;60.15
15678;BME280;7939;50.814;6.368;2023-01-15T10:01:48;98549.31;;;10.73;60.48
15678;BME280;7939;50.814;6.368;2023-01-15T10:04:27;98547.00;;;10.61;61.16
15678;BME280;7939;50.814;6.368;2023-01-15T10:07:03;98546.91;;;10.67;60.43
15678;BME280;7939;50.814;6.368;2023-01-15T10:09:34;98548.84;;;10.54;60.60
15678;BME280;7939;50.814;6.368;2023-01-15T10:12:12;98566.53;;;10.65;60.68
15678;BME280;7939;50.814;6.368;2023-01-15T10:15:09;98566.44;;;10.70;59.82
15678;BME280;7939;50.814;6.368;2023-01-15T10:17:41;98565.69;;;10.65;60.25
15678;BME280;7939;50.814;6.368;2023-01-15T10:20:13;98587.00;;;10.64;59.79
15678;BME280;7939;50.814;6.368;2023-01-15T10:22:54;98568.78;;;10.37;60.35
15678;BME280;7939;50.814;6.368;2023-01-15T10:25:26;98576.94;;;10.54;59.85
15678;BME280;7939;50.814;6.368;2023-01-15T10:28:01;98559.91;;;10.57;59.60
15678;BME280;7939;50.814;6.368;2023-01-15T10:30:37;98566.03;;;10.46;60.13
15678;BME280;7939;50.814;6.368;2023-01-15T10:33:23;98576.03;;;10.59;59.67
15678;BME280;7939;50.814;6.368;2023-01-15T10:35:57;98574.13;;;10.70;59.77
15678;BME280;7939;50.814;6.368;2023-01-15T10:38:31;98570.75;;;10.66;59.82
15678;BME280;7939;50.814;6.368;2023-01-15T10:41:17;98573.31;;;10.66;59.52
15678;BME280;7939;50.814;6.368;2023-01-15T10:43:51;98576.66;;;10.70;59.94
15678;BME280;7939;50.814;6.368;2023-01-15T10:46:23;98580.25;;;10.60;59.93
15678;BME280;7939;50.814;6.368;2023-01-15T10:48:54;98560.47;;;10.71;60.19
15678;BME280;7939;50.814;6.368;2023-01-15T10:51:25;98570.00;;;10.61;58.96
15678;BME280;7939;50.814;6.368;2023-01-15T10:53:57;98563.13;;;10.65;59.64
15678;BME280;7939;50.814;6.368;2023-01-15T10:56:30;98575.03;;;10.66;59.54
15678;BME280;7939;50.814;6.368;2023-01-15T10:59:04;98572.56;;;10.61;59.24
15678;BME280;7939;50.814;6.368;2023-01-15T11:01:36;98583.63;;;10.63;59.04
15678;BME280;7939;50.814;6.368;2023-01-15T11:04:07;98582.94;;;10.53;58.88
15678;BME280;7939;50.814;6.368;2023-01-15T11:06:33;98590.47;;;10.60;59.55
15678;BME280;7939;50.814;6.368;2023-01-15T11:09:02;98594.78;;;10.58;58.95
15678;BME280;7939;50.814;6.368;2023-01-15T11:11:31;98588.72;;;10.63;59.48
15678;BME280;7939;50.814;6.368;2023-01-15T11:14:32;98581.13;;;10.59;59.08
15678;BME280;7939;50.814;6.368;2023-01-15T11:17:17;98585.22;;;10.67;58.67
15678;BME280;7939;50.814;6.368;2023-01-15T11:20:04;98589.31;;;10.74;59.00
15678;BME280;7939;50.814;6.368;2023-01-15T11:22:37;98592.97;;;10.64;58.21
15678;BME280;7939;50.814;6.368;2023-01-15T11:25:06;98579.97;;;10.73;58.74
15678;BME280;7939;50.814;6.368;2023-01-15T11:27:36;98581.66;;;10.74;58.28
15678;BME280;7939;50.814;6.368;2023-01-15T11:30:05;98590.31;;;10.69;58.36
15678;BME280;7939;50.814;6.368;2023-01-15T11:32:34;98590.22;;;10.73;58.69
15678;BME280;7939;50.814;6.368;2023-01-15T11:35:09;98585.13;;;10.72;58.67
15678;BME280;7939;50.814;6.368;2023-01-15T11:37:39;98588.47;;;10.75;58.92
15678;BME280;7939;50.814;6.368;2023-01-15T11:40:17;98581.75;;;10.71;58.43
15678;BME280;7939;50.814;6.368;2023-01-15T11:42:45;98579.50;;;10.54;57.77
15678;BME280;7939;50.814;6.368;2023-01-15T11:45:29;98562.34;;;10.63;57.65
15678;BME280;7939;50.814;6.368;2023-01-15T11:48:15;98565.50;;;10.74;57.62
15678;BME280;7939;50.814;6.368;2023-01-15T11:51:04;98564.66;;;10.73;58.50
15678;BME280;7939;50.814;6.368;2023-01-15T11:53:33;98547.72;;;10.68;58.25
15678;BME280;7939;50.814;6.368;2023-01-15T11:56:08;98546.88;;;10.69;58.22
15678;BME280;7939;50.814;6.368;2023-01-15T11:58:41;98542.63;;;10.69;58.19
15678;BME280;7939;50.814;6.368;2023-01-15T12:01:11;98552.19;;;10.58;57.19
15678;BME280;7939;50.814;6.368;2023-01-15T12:03:40;98552.84;;;10.69;57.84
15678;BME280;7939;50.814;6.368;2023-01-15T12:06:08;98545.22;;;10.66;58.22
15678;BME280;7939;50.814;6.368;2023-01-15T12:08:42;98536.63;;;10.70;57.80
15678;BME280;7939;50.814;6.368;2023-01-15T12:11:29;98541.06;;;10.61;57.98
15678;BME280;7939;50.814;6.368;2023-01-15T12:14:06;98534.91;;;10.71;58.26
15678;BME280;7939;50.814;6.368;2023-01-15T12:16:46;98552.00;;;10.67;57.64
15678;BME280;7939;50.814;6.368;2023-01-15T12:19:18;98555.50;;;10.63;58.21
15678;BME280;7939;50.814;6.368;2023-01-15T12:22:05;98540.19;;;10.63;57.57
15678;BME280;7939;50.814;6.368;2023-01-15T12:25:10;98545.13;;;10.71;57.93
15678;BME280;7939;50.814;6.368;2023-01-15T12:27:53;98537.34;;;10.77;58.25
15678;BME280;7939;50.814;6.368;2023-01-15T12:30:28;98535.66;;;10.74;57.77
15678;BME280;7939;50.814;6.368;2023-01-15T12:33:03;98529.13;;;10.63;57.29
15678;BME280;7939;50.814;6.368;2023-01-15T12:35:34;98541.03;;;10.62;57.27
15678;BME280;7939;50.814;6.368;2023-01-15T12:38:09;98541.78;;;10.67;57.68
15678;BME280;7939;50.814;6.368;2023-01-15T12:40:44;98547.59;;;10.75;57.71
15678;BME280;7939;50.814;6.368;2023-01-15T12:43:19;98541.94;;;10.60;57.86
15678;BME280;7939;50.814;6.368;2023-01-15T12:46:09;98530.81;;;10.64;58.05
15678;BME280;7939;50.814;6.368;2023-01-15T12:48:41;98552.19;;;10.58;57.46
15678;BME280;7939;50.814;6.368;2023-01-15T12:51:13;98538.47;;;10.64;57.50
15678;BME280;7939;50.814;6.368;2023-01-15T12:53:45;98547.84;;;10.62;58.02
15678;BME280;7939;50.814;6.368;2023-01-15T12:56:19;98548.72;;;10.61;57.58
15678;BME280;7939;50.814;6.368;2023-01-15T12:58:51;98556.22;;;10.70;57.78
15678;BME280;7939;50.814;6.368;2023-01-15T13:01:23;98545.16;;;10.69;58.16
15678;BME280;7939;50.814;6.368;2023-01-15T13:04:02;98544.47;;;10.63;57.94
15678;BME280;7939;50.814;6.368;2023-01-15T13:06:31;98540.22;;;10.60;57.36
15678;BME280;7939;50.814;6.368;2023-01-15T13:09:02;98549.31;;;10.73;57.53
15678;BME280;7939;50.814;6.368;2023-01-15T13:11:31;98550.25;;;10.71;57.11
15678;BME280;7939;50.814;6.368;2023-01-15T13:13:59;98524.44;;;10.83;57.53
15678;BME280;7939;50.814;6.368;2023-01-15T13:16:32;98541.41;;;10.86;57.31
15678;BME280;7939;50.814;6.368;2023-01-15T13:19:13;98532.28;;;10.74;57.30
15678;BME280;7939;50.814;6.368;2023-01-15T13:21:44;98535.66;;;10.76;56.95
15678;BME280;7939;50.814;6.368;2023-01-15T13:24:26;98543.66;;;10.59;56.82
15678;BME280;7939;50.814;6.368;2023-01-15T13:27:17;98541.63;;;10.76;57.33
15678;BME280;7939;50.814;6.368;2023-01-15T13:29:59;98539.34;;;10.63;57.28